Time;durP1;ratioP1;P1;durP2;ratioP2;P2;SDS_P1;SDS_P2;PMS_P1;PMS_P2;Temp;Humidity;BMP_temperature;BMP_pressure;BME280_temperature;BME280_humidity;BME280_pressure;Samples;Min_cycle;Max_cycle;Signal;HPM_P1;HPM_P2
2021/01/28 00:00:40;;;;;;;30.42;8.35;;;7.00;99.90;;;;;;5012551;28;20041;-75
2021/01/28 00:03:10;;;;;;;38.95;9.63;;;7.00;99.90;;;;;;5014089;28;20061;-76
2021/01/28 00:05:38;;;;;;;27.95;9.10;;;7.00;99.90;;;;;;5013250;28;20030;-75
2021/01/28 00:08:04;;;;;;;30.88;7.57;;;7.00;99.90;;;;;;5015167;28;20038;-75
2021/01/28 00:10:31;;;;;;;23.92;7.75;;;7.00;99.90;;;;;;5013231;28;20029;-75
2021/01/28 00:12:57;;;;;;;31.75;7.88;;;7.00;99.90;;;;;;5014497;28;20490;-75
2021/01/28 00:15:26;;;;;;;30.33;7.40;;;7.00;99.90;;;;;;5012803;28;20025;-75
2021/01/28 00:18:13;;;;;;;29.70;7.65;;;7.00;99.90;;;;;;5014301;28;20029;-75
2021/01/28 00:20:42;;;;;;;23.80;6.55;;;7.00;99.90;;;;;;5013562;28;20396;-75
2021/01/28 00:23:09;;;;;;;24.25;6.85;;;7.00;99.90;;;;;;4999217;28;20081;-75
2021/01/28 00:25:35;;;;;;;23.02;7.57;;;7.00;99.90;;;;;;4995295;28;20495;-75
2021/01/28 00:28:01;;;;;;;27.00;6.90;;;7.00;99.90;;;;;;4994140;28;20046;-75
2021/01/28 00:30:34;;;;;;;29.08;6.72;;;7.00;99.90;;;;;;4993188;28;20022;-75
2021/01/28 00:32:59;;;;;;;25.27;7.85;;;7.00;99.90;;;;;;4994408;28;20034;-76
2021/01/28 00:35:36;;;;;;;24.90;7.38;;;7.00;99.90;;;;;;4994282;28;20488;-75
2021/01/28 00:38:04;;;;;;;29.15;6.45;;;6.90;99.90;;;;;;5010188;28;20029;-75
2021/01/28 00:40:31;;;;;;;24.58;7.00;;;6.90;99.90;;;;;;5017915;28;20025;-75
2021/01/28 00:42:56;;;;;;;25.25;7.05;;;6.90;99.90;;;;;;5013769;28;20057;-75
2021/01/28 00:45:25;;;;;;;33.33;7.13;;;6.90;99.90;;;;;;4998611;28;20042;-75
2021/01/28 00:47:51;;;;;;;30.13;6.85;;;6.80;99.90;;;;;;4998049;28;20033;-76
2021/01/28 00:50:20;;;;;;;24.63;7.13;;;6.80;99.90;;;;;;5033055;28;20113;-76
2021/01/28 00:52:46;;;;;;;23.15;8.27;;;6.80;99.90;;;;;;5017426;28;20480;-76
2021/01/28 00:55:13;;;;;;;23.80;6.93;;;6.80;99.90;;;;;;5016340;28;20046;-76
2021/01/28 00:57:38;;;;;;;27.42;6.60;;;6.70;99.90;;;;;;5016312;28;20538;-77
2021/01/28 01:00:47;;;;;;;25.23;6.68;;;6.70;99.90;;;;;;5017612;28;20029;-77
2021/01/28 01:03:15;;;;;;;28.00;6.50;;;6.70;99.90;;;;;;5016761;28;20034;-76
2021/01/28 01:05:42;;;;;;;20.38;6.43;;;6.70;99.90;;;;;;5016282;28;20033;-76
2021/01/28 01:08:14;;;;;;;22.60;7.10;;;6.70;99.90;;;;;;5017409;28;20104;-76
2021/01/28 01:10:52;;;;;;;25.00;6.88;;;6.70;99.90;;;;;;5016108;28;20018;-76
2021/01/28 01:13:21;;;;;;;22.77;6.07;;;6.70;99.90;;;;;;5017426;28;20052;-76
2021/01/28 01:15:47;;;;;;;21.83;6.05;;;6.70;99.90;;;;;;5017138;28;20018;-76
2021/01/28 01:18:16;;;;;;;24.20;6.20;;;6.70;99.90;;;;;;5008064;28;20045;-76
2021/01/28 01:20:42;;;;;;;23.17;6.50;;;6.70;99.90;;;;;;5006941;28;20041;-76
2021/01/28 01:23:08;;;;;;;24.45;7.40;;;6.60;99.90;;;;;;5017135;28;20032;-76
2021/01/28 01:25:33;;;;;;;24.92;6.30;;;6.60;99.90;;;;;;5015858;28;20387;-76
2021/01/28 01:27:59;;;;;;;26.85;6.10;;;6.60;99.90;;;;;;4996745;28;20023;-76
2021/01/28 01:30:25;;;;;;;26.80;7.47;;;6.60;99.90;;;;;;5013508;28;20026;-76
2021/01/28 01:32:52;;;;;;;26.17;6.95;;;6.60;99.90;;;;;;5002936;28;20428;-75
2021/01/28 01:35:20;;;;;;;22.42;6.00;;;6.60;99.90;;;;;;4996945;28;20023;-76
2021/01/28 01:37:46;;;;;;;21.58;6.22;;;6.50;99.90;;;;;;5028952;28;20042;-76
2021/01/28 01:40:17;;;;;;;22.10;6.40;;;6.50;99.90;;;;;;5033484;28;20049;-76
2021/01/28 01:42:46;;;;;;;28.55;7.85;;;6.50;99.90;;;;;;5016318;28;20026;-76
2021/01/28 01:45:12;;;;;;;;;;;6.50;99.90;;;;;;5015260;28;20108;-76
2021/01/28 01:47:42;;;;;;;25.73;7.63;;;6.50;99.90;;;;;;5016925;28;20311;-76
2021/01/28 01:50:29;;;;;;;28.70;7.07;;;6.40;99.90;;;;;;5031191;28;20023;-76
2021/01/28 01:52:56;;;;;;;24.88;7.40;;;6.40;99.90;;;;;;5029464;28;20030;-75
2021/01/28 01:55:22;;;;;;;25.20;7.40;;;6.50;99.90;;;;;;5015916;28;20025;-76
2021/01/28 01:57:49;;;;;;;23.13;7.55;;;6.40;99.90;;;;;;5016079;28;20036;-76
2021/01/28 02:00:18;;;;;;;22.92;7.63;;;6.40;99.90;;;;;;5015960;28;20037;-76
2021/01/28 02:02:55;;;;;;;22.38;6.63;;;6.40;99.90;;;;;;5014727;28;20029;-76
2021/01/28 02:05:31;;;;;;;24.15;6.28;;;6.30;99.90;;;;;;5014454;28;20029;-76
2021/01/28 02:07:58;;;;;;;27.23;7.20;;;6.30;99.90;;;;;;5015572;28;20111;-76
2021/01/28 02:10:24;;;;;;;35.45;7.60;;;6.30;99.90;;;;;;5016026;28;20484;-76
2021/01/28 02:12:54;;;;;;;35.42;8.82;;;6.20;99.90;;;;;;5014874;28;20037;-76
2021/01/28 02:15:25;;;;;;;27.23;8.77;;;6.20;99.90;;;;;;5016408;28;20030;-76
2021/01/28 02:17:54;;;;;;;31.65;8.25;;;6.30;99.90;;;;;;5047458;28;20026;-76
2021/01/28 02:20:45;;;;;;;;;;;6.30;99.90;;;;;;5017044;28;20022;-76
2021/01/28 02:23:36;;;;;;;40.22;10.05;;;6.30;99.90;;;;;;5015464;28;20378;-76
2021/01/28 02:26:05;;;;;;;31.42;9.25;;;6.40;99.90;;;;;;5015757;28;20046;-77
2021/01/28 02:28:32;;;;;;;46.90;12.07;;;6.40;99.90;;;;;;5015636;28;20029;-77
2021/01/28 02:30:59;;;;;;;37.45;10.50;;;6.40;99.90;;;;;;5014442;28;20033;-77
2021/01/28 02:33:46;;;;;;;42.90;11.60;;;6.40;99.90;;;;;;5015421;28;20476;-77
2021/01/28 02:36:13;;;;;;;38.97;11.38;;;6.40;99.90;;;;;;5015670;28;20022;-77
2021/01/28 02:38:38;;;;;;;34.58;10.38;;;6.40;99.90;;;;;;5015385;28;20022;-76
2021/01/28 02:41:05;;;;;;;38.78;10.13;;;6.40;99.90;;;;;;5014159;28;20072;-77
2021/01/28 02:43:31;;;;;;;35.42;10.65;;;6.40;99.90;;;;;;5015770;28;20383;-77
2021/01/28 02:46:07;;;;;;;39.13;11.68;;;6.60;99.90;;;;;;5015119;28;20064;-76
2021/01/28 02:48:32;;;;;;;41.67;11.77;;;6.50;99.90;;;;;;5014062;28;20369;-77
2021/01/28 02:50:58;;;;;;;38.47;11.90;;;6.50;99.90;;;;;;5014132;28;20029;-77
2021/01/28 02:53:27;;;;;;;41.42;12.13;;;6.50;99.90;;;;;;5013639;28;20483;-77
2021/01/28 02:55:52;;;;;;;46.55;11.50;;;6.50;99.90;;;;;;5015306;28;20022;-77
2021/01/28 02:58:18;;;;;;;48.95;12.30;;;6.50;99.90;;;;;;5014899;28;20045;-77
2021/01/28 03:00:43;;;;;;;43.67;11.73;;;6.50;99.90;;;;;;5015004;28;20026;-77
2021/01/28 03:03:11;;;;;;;40.90;12.68;;;6.50;99.90;;;;;;5015069;28;20476;-77
2021/01/28 03:05:37;;;;;;;46.47;12.73;;;6.50;99.90;;;;;;5014846;28;20456;-77
2021/01/28 03:08:04;;;;;;;44.78;11.23;;;6.50;99.90;;;;;;5014449;28;20045;-76
2021/01/28 03:10:29;;;;;;;45.83;12.13;;;6.50;99.90;;;;;;5013817;28;20030;-76
2021/01/28 03:12:55;;;;;;;46.05;12.73;;;6.50;99.90;;;;;;5013348;28;20022;-75
2021/01/28 03:15:23;;;;;;;47.42;13.93;;;6.50;99.90;;;;;;5014981;28;20451;-76
2021/01/28 03:17:50;;;;;;;53.85;13.05;;;6.50;99.90;;;;;;5013848;28;20037;-76
2021/01/28 03:20:16;;;;;;;66.18;14.93;;;6.50;99.90;;;;;;5014960;28;20026;-75
2021/01/28 03:22:41;;;;;;;63.90;14.18;;;6.50;99.90;;;;;;5014139;28;20025;-75
2021/01/28 03:25:10;;;;;;;53.47;13.10;;;6.50;99.90;;;;;;5014809;28;20026;-75
2021/01/28 03:27:36;;;;;;;51.88;13.30;;;6.50;99.90;;;;;;5014421;28;20026;-75
2021/01/28 03:30:07;;;;;;;53.60;12.32;;;6.50;99.90;;;;;;5014460;28;20026;-75
2021/01/28 03:32:33;;;;;;;53.83;13.27;;;6.40;99.90;;;;;;5013354;28;20014;-75
2021/01/28 03:34:59;;;;;;;48.25;14.15;;;6.50;99.90;;;;;;5012880;28;20105;-75
2021/01/28 03:37:24;;;;;;;85.07;13.18;;;6.50;99.90;;;;;;5014398;28;20029;-75
2021/01/28 03:39:50;;;;;;;69.32;13.35;;;6.50;99.90;;;;;;5014718;28;20022;-76
2021/01/28 03:42:15;;;;;;;54.88;15.07;;;6.50;99.90;;;;;;5014807;28;20041;-76
2021/01/28 03:44:41;;;;;;;69.78;13.85;;;6.40;99.90;;;;;;5012823;28;20044;-75
2021/01/28 03:49:37;;;;;;;58.30;13.95;;;6.40;99.90;;;;;;5032176;28;20050;-75
2021/01/28 03:52:03;;;;;;;59.85;14.02;;;6.40;99.90;;;;;;5016788;28;20045;-76
2021/01/28 03:54:29;;;;;;;60.92;16.33;;;6.40;99.90;;;;;;5016737;28;20013;-76
2021/01/28 03:56:54;;;;;;;67.00;12.73;;;6.40;99.90;;;;;;5033791;28;20040;-76
2021/01/28 03:59:20;;;;;;;75.90;15.32;;;6.40;99.90;;;;;;5034092;28;20025;-75
2021/01/28 04:01:45;;;;;;;55.95;14.07;;;6.40;99.90;;;;;;5033988;28;20036;-75
2021/01/28 04:04:11;;;;;;;45.10;12.48;;;6.40;99.90;;;;;;5034016;28;20059;-75
2021/01/28 04:06:36;;;;;;;44.20;13.10;;;6.30;99.90;;;;;;5033797;28;20029;-76
2021/01/28 04:09:02;;;;;;;55.72;12.88;;;6.30;99.90;;;;;;5033934;28;20586;-76
2021/01/28 04:11:28;;;;;;;46.75;13.82;;;6.30;99.90;;;;;;5033827;28;20399;-76
2021/01/28 04:13:53;;;;;;;48.00;12.77;;;6.50;99.90;;;;;;5019972;28;20021;-76
2021/01/28 04:16:19;;;;;;;46.70;13.88;;;6.30;99.90;;;;;;5020047;28;20498;-76
2021/01/28 04:18:45;;;;;;;75.47;13.27;;;6.30;99.90;;;;;;5019735;28;20049;-76
2021/01/28 04:21:11;;;;;;;48.28;13.82;;;6.40;99.90;;;;;;5020057;28;20065;-77
2021/01/28 04:23:36;;;;;;;57.13;12.82;;;6.40;99.90;;;;;;5037358;28;20095;-76
2021/01/28 04:26:02;;;;;;;55.30;14.52;;;6.40;99.90;;;;;;5019497;28;20027;-77
2021/01/28 04:28:28;;;;;;;60.75;14.23;;;6.40;99.90;;;;;;5019360;28;20372;-75
2021/01/28 04:30:53;;;;;;;73.65;13.77;;;6.40;99.90;;;;;;5019408;28;20029;-75
2021/01/28 04:33:19;;;;;;;80.43;14.13;;;6.40;99.90;;;;;;5037688;28;20021;-75
2021/01/28 04:35:45;;;;;;;74.97;14.65;;;6.40;99.90;;;;;;5019415;28;20017;-75
2021/01/28 04:38:10;;;;;;;82.55;14.38;;;6.30;99.90;;;;;;5019724;28;20029;-76
2021/01/28 04:40:44;;;;;;;58.22;13.82;;;6.30;99.90;;;;;;5037615;28;20124;-75
2021/01/28 04:43:23;;;;;;;65.03;13.18;;;6.30;99.90;;;;;;5037281;28;20052;-75
2021/01/28 04:45:51;;;;;;;110.25;17.08;;;6.30;99.90;;;;;;5038152;28;20022;-75
2021/01/28 04:48:18;;;;;;;45.00;12.55;;;6.40;99.90;;;;;;5018842;28;20048;-75
2021/01/28 04:50:43;;;;;;;101.43;14.10;;;6.30;99.90;;;;;;5037050;28;20029;-75
2021/01/28 04:53:24;;;;;;;92.15;14.48;;;6.30;99.90;;;;;;5019665;28;20026;-75
2021/01/28 04:55:53;;;;;;;64.05;13.00;;;6.30;99.90;;;;;;5037024;28;20022;-75
2021/01/28 04:58:19;;;;;;;62.05;15.30;;;6.30;99.90;;;;;;5019282;28;20053;-74
2021/01/28 05:00:45;;;;;;;43.35;12.18;;;6.40;99.90;;;;;;5037233;28;20048;-75
2021/01/28 05:03:28;;;;;;;37.30;11.57;;;6.30;99.90;;;;;;5019105;28;20032;-75
2021/01/28 05:05:56;;;;;;;37.15;12.05;;;6.30;99.90;;;;;;5019247;28;20109;-76
2021/01/28 05:08:22;;;;;;;33.05;10.65;;;6.40;99.90;;;;;;5037049;28;20075;-76
2021/01/28 05:10:51;;;;;;;35.70;10.82;;;6.30;99.90;;;;;;5037107;28;20403;-76
2021/01/28 05:13:27;;;;;;;;;;;6.30;99.90;;;;;;5019339;28;20014;-75
2021/01/28 05:15:54;;;;;;;30.60;10.15;;;6.30;99.90;;;;;;5019031;28;19983;-75
2021/01/28 05:18:35;;;;;;;31.63;9.93;;;6.40;99.90;;;;;;5018982;28;20109;-75
2021/01/28 05:21:23;;;;;;;32.38;11.38;;;6.40;99.90;;;;;;5036604;28;20101;-76
2021/01/28 05:24:00;;;;;;;39.30;11.15;;;6.40;99.90;;;;;;5036081;28;20029;-75
2021/01/28 05:26:39;;;;;;;34.45;11.15;;;6.40;99.90;;;;;;5036571;28;20052;-74
2021/01/28 05:29:27;;;;;;;41.80;12.60;;;6.40;99.90;;;;;;5018783;28;20423;-75
2021/01/28 05:31:55;;;;;;;45.83;13.00;;;6.40;99.90;;;;;;5037046;28;20511;-75
2021/01/28 05:34:28;;;;;;;42.40;10.77;;;6.40;99.90;;;;;;5018857;28;20028;-75
2021/01/28 05:37:19;;;;;;;41.20;11.05;;;6.30;99.90;;;;;;5036469;28;20021;-74
2021/01/28 05:39:44;;;;;;;37.35;10.77;;;6.40;99.90;;;;;;5036022;28;20487;-75
2021/01/28 05:42:25;;;;;;;30.27;9.75;;;6.40;99.90;;;;;;5018405;28;20107;-75
2021/01/28 05:44:52;;;;;;;43.78;10.10;;;6.30;99.90;;;;;;5018507;28;20036;-75
2021/01/28 05:47:30;;;;;;;41.35;10.43;;;6.30;99.90;;;;;;5035811;28;20041;-75
2021/01/28 05:50:14;;;;;;;32.78;9.02;;;6.30;99.90;;;;;;5035951;28;20022;-75
2021/01/28 05:52:40;;;;;;;41.78;9.48;;;6.30;99.90;;;;;;5036144;28;20017;-75
2021/01/28 05:55:06;;;;;;;46.80;9.02;;;6.30;99.90;;;;;;5036236;28;20024;-75
2021/01/28 05:57:39;;;;;;;41.80;9.27;;;6.30;99.90;;;;;;5018643;28;20080;-74
2021/01/28 06:00:13;;;;;;;42.40;8.82;;;6.30;99.90;;;;;;5018022;28;20025;-75
2021/01/28 06:02:58;;;;;;;45.35;10.32;;;6.20;99.90;;;;;;5035980;28;20487;-74
2021/01/28 06:05:44;;;;;;;42.53;10.68;;;6.20;99.90;;;;;;5036599;28;20467;-75
2021/01/28 06:08:31;;;;;;;38.90;8.27;;;6.20;99.90;;;;;;4995058;28;20038;-75
2021/01/28 06:11:08;;;;;;;34.58;9.27;;;6.20;99.90;;;;;;5017816;28;20495;-75
2021/01/28 06:13:37;;;;;;;31.55;7.95;;;6.20;99.90;;;;;;5035560;28;20483;-75
2021/01/28 06:16:05;;;;;;;42.33;9.45;;;6.20;99.90;;;;;;5035721;28;20155;-75
2021/01/28 06:19:05;;;;;;;31.20;6.47;;;6.20;99.90;;;;;;5017634;28;20069;-74
2021/01/28 06:21:36;;;;;;;26.63;6.65;;;6.20;99.90;;;;;;5035440;28;20510;-74
2021/01/28 06:24:55;;;;;;;27.17;7.57;;;6.20;99.90;;;;;;5017780;28;20036;-75
2021/01/28 06:27:29;;;;;;;;;;;6.20;99.90;;;;;;4939268;29;20530;-75
2021/01/28 06:30:13;;;;;;;18.05;5.38;;;6.20;99.90;;;;;;4939155;28;19914;-76
2021/01/28 06:32:49;;;;;;;17.45;5.18;;;6.20;99.90;;;;;;4990227;28;20124;-76
2021/01/28 06:35:24;;;;;;;28.45;6.53;;;6.20;99.90;;;;;;5017862;28;20018;-74
2021/01/28 06:37:56;;;;;;;25.85;5.43;;;6.20;99.90;;;;;;5035314;28;20037;-75
2021/01/28 06:40:27;;;;;;;22.48;5.53;;;6.10;99.90;;;;;;5017703;28;20037;-74
2021/01/28 06:43:04;;;;;;;16.50;4.82;;;6.10;99.90;;;;;;5035201;28;20030;-76
2021/01/28 06:45:34;;;;;;;20.17;5.63;;;6.20;99.90;;;;;;5035150;28;20108;-77
2021/01/28 06:48:16;;;;;;;14.57;4.68;;;6.10;99.90;;;;;;5035107;28;20056;-76
2021/01/28 06:51:01;;;;;;;19.35;4.97;;;6.10;99.90;;;;;;5035325;28;20018;-77
2021/01/28 06:53:48;;;;;;;15.75;4.55;;;6.10;99.90;;;;;;5017453;28;20026;-75
2021/01/28 06:56:32;;;;;;;20.73;4.47;;;6.20;99.90;;;;;;5035896;28;20375;-75
2021/01/28 06:59:04;;;;;;;16.13;4.18;;;6.10;99.90;;;;;;5034782;28;20017;-76
2021/01/28 07:01:36;;;;;;;15.52;4.05;;;6.10;99.90;;;;;;5034773;28;20460;-75
2021/01/28 07:04:13;;;;;;;10.68;4.47;;;6.10;99.90;;;;;;5034426;28;20475;-76
2021/01/28 07:06:51;;;;;;;14.65;4.40;;;6.10;99.90;;;;;;5035193;28;20036;-76
2021/01/28 07:09:50;;;;;;;11.43;4.15;;;6.10;99.90;;;;;;5034492;28;20025;-76
2021/01/28 07:12:23;;;;;;;10.23;3.15;;;6.10;99.90;;;;;;5035389;28;20478;-75
2021/01/28 07:14:50;;;;;;;10.15;2.75;;;6.10;99.90;;;;;;5034936;28;20028;-76
2021/01/28 07:17:49;;;;;;;9.65;3.17;;;6.10;99.90;;;;;;5017049;28;20502;-74
2021/01/28 07:20:35;;;;;;;7.45;2.63;;;6.10;99.90;;;;;;5020343;28;20116;-74
2021/01/28 07:23:22;;;;;;;9.93;2.38;;;6.10;99.90;;;;;;5016980;28;20029;-75
2021/01/28 07:25:49;;;;;;;10.05;2.70;;;6.10;99.90;;;;;;5034760;28;20026;-75
2021/01/28 07:28:17;;;;;;;11.80;2.60;;;6.10;99.90;;;;;;5016238;28;20038;-75
2021/01/28 07:30:43;;;;;;;4.93;1.23;;;6.10;99.90;;;;;;5016678;28;20025;-74
2021/01/28 07:33:24;;;;;;;8.55;2.17;;;6.10;99.90;;;;;;5033035;28;20149;-75
2021/01/28 07:39:03;;;;;;;3.33;0.75;;;6.10;99.90;;;;;;5008854;28;20112;-75
2021/01/28 07:41:51;;;;;;;5.63;1.23;;;6.00;99.90;;;;;;5023225;28;20028;-75
2021/01/28 07:44:38;;;;;;;5.65;1.30;;;6.00;99.90;;;;;;5034200;28;20025;-75
2021/01/28 07:47:14;;;;;;;5.07;0.93;;;6.00;99.90;;;;;;5033859;28;20056;-75
2021/01/28 07:50:18;;;;;;;9.25;1.40;;;6.00;99.90;;;;;;5034320;28;20033;-76
2021/01/28 07:52:44;;;;;;;6.07;1.05;;;6.00;99.90;;;;;;5016037;28;20438;-75
2021/01/28 07:55:34;;;;;;;7.80;1.45;;;6.00;99.90;;;;;;5016263;28;20049;-75
2021/01/28 07:58:01;;;;;;;4.50;1.00;;;6.00;99.90;;;;;;5023577;28;20049;-76
2021/01/28 08:00:37;;;;;;;5.80;0.95;;;6.00;99.90;;;;;;5016380;28;20021;-76
2021/01/28 08:03:12;;;;;;;3.20;0.70;;;6.00;99.90;;;;;;5034288;28;20033;-75
2021/01/28 08:05:39;;;;;;;4.75;1.70;;;6.00;99.90;;;;;;5033955;28;20076;-75
2021/01/28 08:08:15;;;;;;;3.53;0.90;;;6.00;99.90;;;;;;5010987;28;20077;-75
2021/01/28 08:10:42;;;;;;;2.42;0.57;;;5.90;99.90;;;;;;4995509;28;20026;-75
2021/01/28 08:13:21;;;;;;;3.83;0.90;;;5.90;99.90;;;;;;4994647;28;20023;-76
2021/01/28 08:16:02;;;;;;;3.67;0.68;;;5.90;99.90;;;;;;4994285;28;20054;-76
2021/01/28 08:18:31;;;;;;;5.78;1.83;;;5.90;99.90;;;;;;4977072;28;20019;-75
2021/01/28 08:21:22;;;;;;;4.18;1.75;;;5.90;99.90;;;;;;4994399;28;20029;-75
2021/01/28 08:23:48;;;;;;;4.70;0.90;;;5.90;99.90;;;;;;4983698;28;20493;-75
2021/01/28 08:26:31;;;;;;;3.10;0.88;;;5.90;99.90;;;;;;4976573;28;20396;-75
2021/01/28 08:29:23;;;;;;;2.80;0.65;;;5.90;99.90;;;;;;4994180;28;20113;-75
2021/01/28 08:31:54;;;;;;;3.58;0.75;;;5.90;99.90;;;;;;4991420;28;20393;-75
2021/01/28 08:34:26;;;;;;;3.20;0.98;;;5.80;99.90;;;;;;4994092;28;20057;-75
2021/01/28 08:36:56;;;;;;;3.65;0.52;;;5.80;99.90;;;;;;4976140;28;20555;-75
2021/01/28 08:39:25;;;;;;;2.58;0.40;;;5.90;99.90;;;;;;4976862;28;20053;-75
2021/01/28 08:42:09;;;;;;;2.70;0.45;;;5.90;99.90;;;;;;4994259;28;20026;-75
2021/01/28 08:44:36;;;;;;;2.45;0.50;;;5.80;99.90;;;;;;4994776;28;20035;-75
2021/01/28 08:47:20;;;;;;;3.92;0.80;;;5.80;99.90;;;;;;4993919;28;20032;-75
2021/01/28 08:50:00;;;;;;;1.73;0.50;;;5.80;99.90;;;;;;4994750;28;20034;-75
2021/01/28 08:52:26;;;;;;;1.65;0.68;;;5.80;99.90;;;;;;4994987;28;20092;-75
2021/01/28 08:54:52;;;;;;;3.50;1.20;;;5.80;99.90;;;;;;4994695;28;20022;-75
2021/01/28 08:57:23;;;;;;;2.58;0.50;;;5.80;99.90;;;;;;4994551;28;20389;-75
2021/01/28 08:59:57;;;;;;;4.30;0.75;;;5.80;99.90;;;;;;4996958;28;20508;-75
2021/01/28 09:02:27;;;;;;;1.50;0.50;;;5.80;99.90;;;;;;4997752;28;20030;-75
2021/01/28 09:05:00;;;;;;;1.90;0.32;;;5.80;99.90;;;;;;4998131;28;20057;-75
2021/01/28 09:07:46;;;;;;;2.15;0.50;;;5.80;99.90;;;;;;4997669;28;20539;-75
2021/01/28 09:10:12;;;;;;;1.70;0.38;;;5.90;99.90;;;;;;4997771;28;20112;-75
2021/01/28 09:12:38;;;;;;;1.98;0.47;;;5.90;99.90;;;;;;4980582;28;20054;-75
2021/01/28 09:15:23;;;;;;;1.48;0.30;;;5.90;99.90;;;;;;4997774;28;20026;-75
2021/01/28 09:17:51;;;;;;;1.98;0.95;;;5.80;99.90;;;;;;4997640;28;20030;-75
2021/01/28 09:20:35;;;;;;;5.88;0.90;;;5.80;99.90;;;;;;4980384;28;20027;-75
2021/01/28 09:23:10;;;;;;;2.03;0.20;;;5.80;99.90;;;;;;4997433;28;20022;-74
2021/01/28 09:25:37;;;;;;;0.55;0.10;;;5.80;99.90;;;;;;5000472;28;20451;-73
2021/01/28 09:28:07;;;;;;;1.08;0.50;;;5.80;99.90;;;;;;5007727;28;20034;-73
2021/01/28 09:30:39;;;;;;;1.27;0.10;;;5.80;99.90;;;;;;4999382;28;20054;-74
2021/01/28 09:33:34;;;;;;;0.75;0.20;;;5.90;99.90;;;;;;4979468;28;20026;-74
2021/01/28 09:36:06;;;;;;;1.40;0.35;;;5.80;99.90;;;;;;5015406;28;20018;-74
2021/01/28 09:38:32;;;;;;;1.60;0.20;;;5.80;99.90;;;;;;5016448;28;20034;-74
2021/01/28 09:41:12;;;;;;;0.80;0.17;;;5.90;99.90;;;;;;5016275;28;20022;-74
2021/01/28 09:43:37;;;;;;;0.70;0.10;;;5.90;99.90;;;;;;4998788;28;20392;-74
2021/01/28 09:46:24;;;;;;;2.63;0.10;;;5.90;99.90;;;;;;5016478;28;20029;-74
2021/01/28 09:48:53;;;;;;;1.05;0.10;;;6.00;99.90;;;;;;4998790;28;20562;-74
2021/01/28 09:51:31;;;;;;;0.85;0.15;;;6.00;99.90;;;;;;4979310;28;20026;-74
2021/01/28 09:54:22;;;;;;;0.30;0.00;;;5.90;99.90;;;;;;4988072;28;20033;-75
2021/01/28 09:56:47;;;;;;;0.25;0.05;;;5.90;99.90;;;;;;5023691;28;20022;-74
2021/01/28 09:59:14;;;;;;;2.10;0.10;;;6.00;99.90;;;;;;5022544;28;20029;-74
2021/01/28 10:01:44;;;;;;;0.68;0.20;;;6.00;99.90;;;;;;4996875;28;20087;-74
2021/01/28 10:04:11;;;;;;;1.10;0.10;;;5.90;99.90;;;;;;4979090;28;20034;-74
2021/01/28 10:06:38;;;;;;;0.50;0.10;;;6.00;99.90;;;;;;4996680;28;20058;-74
2021/01/28 10:09:05;;;;;;;0.60;0.05;;;6.00;99.90;;;;;;5008039;28;20025;-74
2021/01/28 10:11:30;;;;;;;1.67;0.65;;;6.00;99.90;;;;;;5018527;28;20040;-74
2021/01/28 10:14:00;;;;;;;0.35;0.00;;;5.90;99.90;;;;;;5014131;28;20089;-74
2021/01/28 10:16:27;;;;;;;0.95;0.20;;;6.00;99.90;;;;;;5006329;28;20026;-74
2021/01/28 10:18:53;;;;;;;0.45;0.10;;;6.00;99.90;;;;;;4998300;28;20022;-74
2021/01/28 10:21:18;;;;;;;0.90;0.13;;;6.00;99.90;;;;;;4999164;28;20029;-74
2021/01/28 10:23:44;;;;;;;0.38;0.20;;;6.00;99.90;;;;;;4991047;28;20492;-74
2021/01/28 10:26:10;;;;;;;0.90;0.10;;;6.00;99.90;;;;;;5013977;28;20029;-74
2021/01/28 10:28:35;;;;;;;0.52;0.20;;;5.90;99.90;;;;;;4998317;28;20038;-74
2021/01/28 10:31:02;;;;;;;3.40;0.43;;;6.00;99.90;;;;;;4997447;28;20543;-75
2021/01/28 10:33:30;;;;;;;1.92;0.20;;;5.90;99.90;;;;;;5014782;28;20495;-74
2021/01/28 10:35:56;;;;;;;2.78;0.52;;;5.90;99.90;;;;;;4994488;28;20085;-73
2021/01/28 10:38:22;;;;;;;0.73;0.00;;;5.90;99.90;;;;;;5011370;28;20113;-72
2021/01/28 10:40:47;;;;;;;0.43;0.00;;;5.90;99.90;;;;;;5007399;28;20034;-72
2021/01/28 10:43:13;;;;;;;0.30;0.20;;;5.90;99.90;;;;;;5000652;28;20438;-73
2021/01/28 10:45:40;;;;;;;0.40;0.10;;;5.90;99.90;;;;;;5004096;28;20033;-73
2021/01/28 10:48:08;;;;;;;1.20;0.10;;;5.90;99.90;;;;;;4997035;28;20488;-75
2021/01/28 10:50:35;;;;;;;0.22;0.03;;;5.90;99.90;;;;;;5014680;28;20025;-73
2021/01/28 10:53:02;;;;;;;0.75;0.00;;;5.90;99.90;;;;;;4996816;28;20025;-73
2021/01/28 10:55:29;;;;;;;0.35;0.10;;;6.00;99.90;;;;;;5011565;28;20022;-73
2021/01/28 10:57:55;;;;;;;0.40;0.03;;;6.00;99.90;;;;;;5008496;28;20030;-74
2021/01/28 11:00:22;;;;;;;0.95;0.15;;;6.10;99.90;;;;;;4995147;28;20018;-75
2021/01/28 11:02:48;;;;;;;0.40;0.00;;;6.10;99.90;;;;;;4977690;28;20388;-74
2021/01/28 11:05:30;;;;;;;1.17;0.05;;;6.10;99.90;;;;;;4977280;28;20165;-75
2021/01/28 11:07:55;;;;;;;1.27;0.10;;;6.20;99.90;;;;;;4994957;28;20554;-74
2021/01/28 11:10:23;;;;;;;1.17;0.00;;;6.20;99.90;;;;;;4995169;28;20088;-74
2021/01/28 11:12:50;;;;;;;0.35;0.10;;;6.30;99.90;;;;;;4977333;28;20018;-74
2021/01/28 11:15:16;;;;;;;0.20;0.20;;;6.30;99.90;;;;;;4994513;28;20026;-74
2021/01/28 11:17:42;;;;;;;0.63;0.10;;;6.30;99.90;;;;;;4994380;28;20101;-74
2021/01/28 11:20:10;;;;;;;0.20;0.00;;;6.40;99.90;;;;;;4994301;28;20037;-76
2021/01/28 11:22:37;;;;;;;1.13;0.20;;;6.40;99.90;;;;;;5013122;28;20057;-74
2021/01/28 11:25:04;;;;;;;1.13;0.30;;;6.40;99.90;;;;;;4996061;28;20044;-74
2021/01/28 11:27:30;;;;;;;2.22;0.88;;;6.50;99.90;;;;;;4984764;28;20037;-75
2021/01/28 11:29:58;;;;;;;0.73;0.17;;;6.50;99.90;;;;;;4976774;28;20019;-74
2021/01/28 11:32:23;;;;;;;0.28;0.10;;;6.50;99.90;;;;;;5009516;28;20488;-75
2021/01/28 11:34:49;;;;;;;0.65;0.20;;;6.50;99.90;;;;;;5025236;28;20018;-73
2021/01/28 11:37:14;;;;;;;1.75;0.68;;;6.50;99.90;;;;;;5008244;28;20034;-74
2021/01/28 11:39:41;;;;;;;1.73;0.30;;;6.50;99.90;;;;;;5004431;28;20021;-74
2021/01/28 11:42:06;;;;;;;1.33;0.30;;;6.60;99.90;;;;;;5015750;28;20076;-74
2021/01/28 11:44:32;;;;;;;2.53;0.57;;;6.60;99.90;;;;;;5016973;28;20056;-74
2021/01/28 11:46:58;;;;;;;1.50;0.90;;;6.50;99.90;;;;;;5016316;28;20033;-74
2021/01/28 11:49:23;;;;;;;1.00;0.40;;;6.50;99.90;;;;;;5027105;28;20034;-74
2021/01/28 11:51:49;;;;;;;1.10;0.57;;;6.50;99.90;;;;;;5014227;28;20018;-74
2021/01/28 11:54:14;;;;;;;1.23;0.70;;;6.50;99.90;;;;;;5014653;28;20018;-74
2021/01/28 11:56:40;;;;;;;2.17;1.10;;;6.40;99.90;;;;;;5014049;28;20044;-74
2021/01/28 11:59:06;;;;;;;2.08;1.20;;;6.40;99.90;;;;;;5008842;28;20080;-74
2021/01/28 12:01:31;;;;;;;2.25;1.27;;;6.40;99.90;;;;;;4982693;28;20034;-73
2021/01/28 12:03:57;;;;;;;3.65;1.10;;;6.40;99.90;;;;;;4994162;28;20033;-74
2021/01/28 12:06:23;;;;;;;2.97;1.50;;;6.30;99.90;;;;;;4977991;28;20026;-73
2021/01/28 12:08:48;;;;;;;2.92;1.25;;;6.30;99.90;;;;;;4997632;28;20385;-76
2021/01/28 12:11:14;;;;;;;3.15;1.65;;;6.30;99.90;;;;;;4994889;28;20027;-74
2021/01/28 12:13:40;;;;;;;2.50;1.75;;;6.30;99.90;;;;;;4982732;28;20038;-76
2021/01/28 12:16:06;;;;;;;3.60;1.95;;;6.30;99.90;;;;;;4977030;28;20064;-76
2021/01/28 12:19:06;;;;;;;2.72;1.60;;;6.30;99.90;;;;;;4977138;28;20036;-76
2021/01/28 12:21:31;;;;;;;3.05;1.83;;;6.30;99.90;;;;;;4995838;28;20038;-72
2021/01/28 12:23:57;;;;;;;4.15;1.98;;;6.30;99.90;;;;;;4994746;28;20022;-72
2021/01/28 12:26:23;;;;;;;3.58;1.95;;;6.30;99.90;;;;;;4997311;28;20031;-72
2021/01/28 12:28:49;;;;;;;4.10;2.28;;;6.30;99.90;;;;;;4979303;28;20026;-72
2021/01/28 12:31:15;;;;;;;4.57;2.35;;;6.30;99.90;;;;;;5010993;28;20489;-72
2021/01/28 12:33:40;;;;;;;5.75;2.40;;;6.30;99.90;;;;;;5025064;28;20021;-72
2021/01/28 12:36:07;;;;;;;3.55;2.08;;;6.40;99.90;;;;;;5019567;28;20025;-73
2021/01/28 12:38:33;;;;;;;3.63;2.10;;;6.40;99.90;;;;;;4997981;28;20492;-74
2021/01/28 12:40:59;;;;;;;4.30;2.40;;;6.40;99.90;;;;;;5016786;28;20112;-72
2021/01/28 12:43:24;;;;;;;4.90;2.47;;;6.40;99.90;;;;;;5013741;28;20030;-71
2021/01/28 12:45:50;;;;;;;4.60;1.92;;;6.50;99.90;;;;;;4995094;28;20074;-73
2021/01/28 12:48:16;;;;;;;14.65;3.13;;;6.50;99.90;;;;;;5005257;28;20033;-73
2021/01/28 12:50:41;;;;;;;4.50;1.95;;;6.50;99.90;;;;;;4997955;28;20044;-73
2021/01/28 12:53:07;;;;;;;3.25;1.63;;;6.50;99.90;;;;;;5002190;28;20018;-72
2021/01/28 12:55:32;;;;;;;2.58;1.83;;;6.50;99.90;;;;;;5008860;28;20026;-73
2021/01/28 12:57:58;;;;;;;3.35;2.17;;;6.50;99.90;;;;;;4999626;28;20026;-73
2021/01/28 13:00:24;;;;;;;3.13;1.65;;;6.40;99.90;;;;;;5000078;28;20026;-74
2021/01/28 13:02:50;;;;;;;4.07;2.17;;;6.40;99.90;;;;;;4980246;28;20022;-73
2021/01/28 13:05:16;;;;;;;3.55;1.95;;;6.40;99.90;;;;;;5011812;28;20029;-74
2021/01/28 13:07:41;;;;;;;3.22;1.52;;;6.40;99.90;;;;;;5015534;28;20567;-74
2021/01/28 13:10:08;;;;;;;3.00;1.70;;;6.40;99.90;;;;;;4999586;28;20025;-73
2021/01/28 13:12:35;;;;;;;3.50;2.20;;;6.30;99.90;;;;;;5017326;28;20030;-75
2021/01/28 13:15:02;;;;;;;3.78;2.00;;;6.30;99.90;;;;;;5016976;28;20388;-73